Amreli Airport

IN-0023 · 古吉拉特邦, 印度

使用的METAR站距离机场100 km。
罗盘
风向 的 风向 100° Amreli Airport 4/22
风: 10 kt, 3 beaufort

5 kt

8 kt
改变
0 ft 1.000 2.000 3.000 4.000 5.000
Cloud Cloud
FEW 2.500
METAR VABV 031230Z 10010KT 8000 FEW025 24/11 Q1012

METAR Amreli Airport - IN-0023

Amreli Airport是,印度中的小机场。 该机场位于纬度21,62142和经度71,22631。 该机场有一条跑道: 4/22. 这个机场没有ICAO代码,我们使用IN-0023作为参考。 机场在Mumbai FIR中。

该航空气象观测是针对Bhavnagar Airport在2024年3月3日 18:00, 当地时间进行的。

机场观察

风向为100°,速度为10 kt。

可见度为8 km。

有几云在2.500 ft的高度。 没有观察到天花板。

温度和风寒是24 °C。 露点为11 °C,相对湿度为44%。 海平面上的气压为1012 hPa (QNH)。

白天

今天,太阳从07:03升起,在18:50降落。 这适用于Amreli Airport,世界夏令时可能有所不同。 当地时间与世界标准时间之间的时差为+5 小时 30 分钟。 当前,没有夏令时有效。

公司介绍

我们没有关于这个机场的公司信息。

体会

到Vliegles.nl去找飞行课程,跳伞和其他飞行体验。 浏览页面,了解Amreli Airport附近所有可用的活动。 你也可以使用搜索功能来寻找你所在地附近的特定飞行课程、跳伞或其他飞行体验。

跑道

Id 标题 侧风 逆风 侧风 %
4/22 043°-223° 8 kt 5 kt 84 %

逆风成分最大的方向会被突出显示,并用于横风计算。 这并不一定意味着这个方向在使用。

乌云

2.500 ft FEW 几云

温度 & 天气

温度 24 °C
露点 11 °C
相对湿度 44%
Kp-index 5 (0-9)

白天

日出
06:59 (10:40)
中午
12:53
日落
18:46

小工具

你想在你的网站上有一个关于Amreli Airport的当前航空天气(METAR)的小部件吗?

显示HTML代码
?>